sensor_id;sensor_type;location;lat;lon;timestamp;temperature;humidity
13684;DHT22;6914;53.552;9.908;2022-10-31T00:01:10;13.50;99.90
13684;DHT22;6914;53.552;9.908;2022-10-31T00:03:38;13.50;99.90
13684;DHT22;6914;53.552;9.908;2022-10-31T00:06:05;13.50;99.90
13684;DHT22;6914;53.552;9.908;2022-10-31T00:08:31;13.50;99.90
13684;DHT22;6914;53.552;9.908;2022-10-31T00:10:58;13.50;99.90
13684;DHT22;6914;53.552;9.908;2022-10-31T00:13:25;13.50;99.90
13684;DHT22;6914;53.552;9.908;2022-10-31T00:15:52;13.50;99.90
13684;DHT22;6914;53.552;9.908;2022-10-31T00:18:19;13.40;99.90
13684;DHT22;6914;53.552;9.908;2022-10-31T00:20:47;13.40;99.90
13684;DHT22;6914;53.552;9.908;2022-10-31T00:23:14;13.40;99.90
13684;DHT22;6914;53.552;9.908;2022-10-31T00:25:41;13.30;99.90
13684;DHT22;6914;53.552;9.908;2022-10-31T00:28:09;13.30;99.90
13684;DHT22;6914;53.552;9.908;2022-10-31T00:30:37;13.30;99.90
13684;DHT22;6914;53.552;9.908;2022-10-31T00:33:04;13.20;99.90
13684;DHT22;6914;53.552;9.908;2022-10-31T00:35:31;13.20;99.90
13684;DHT22;6914;53.552;9.908;2022-10-31T00:37:59;13.30;99.90
13684;DHT22;6914;53.552;9.908;2022-10-31T00:40:26;13.20;99.90
13684;DHT22;6914;53.552;9.908;2022-10-31T00:42:53;13.10;99.90
13684;DHT22;6914;53.552;9.908;2022-10-31T00:45:19;13.00;99.90
13684;DHT22;6914;53.552;9.908;2022-10-31T00:47:46;13.00;99.90
13684;DHT22;6914;53.552;9.908;2022-10-31T00:50:13;13.00;99.90
13684;DHT22;6914;53.552;9.908;2022-10-31T00:52:40;12.90;99.90
13684;DHT22;6914;53.552;9.908;2022-10-31T00:55:08;12.90;99.90
13684;DHT22;6914;53.552;9.908;2022-10-31T00:57:35;13.00;99.90
13684;DHT22;6914;53.552;9.908;2022-10-31T01:00:02;12.80;99.90
13684;DHT22;6914;53.552;9.908;2022-10-31T01:02:29;12.70;99.90
13684;DHT22;6914;53.552;9.908;2022-10-31T01:04:55;12.80;99.90
13684;DHT22;6914;53.552;9.908;2022-10-31T01:07:22;12.70;99.90
13684;DHT22;6914;53.552;9.908;2022-10-31T01:09:49;12.80;99.90
13684;DHT22;6914;53.552;9.908;2022-10-31T01:12:17;12.80;99.90
13684;DHT22;6914;53.552;9.908;2022-10-31T01:14:44;12.80;99.90
13684;DHT22;6914;53.552;9.908;2022-10-31T01:17:11;12.80;99.90
13684;DHT22;6914;53.552;9.908;2022-10-31T01:19:38;12.80;99.90
13684;DHT22;6914;53.552;9.908;2022-10-31T01:22:05;12.80;99.90
13684;DHT22;6914;53.552;9.908;2022-10-31T01:24:32;12.80;99.90
13684;DHT22;6914;53.552;9.908;2022-10-31T01:26:58;12.80;99.90
13684;DHT22;6914;53.552;9.908;2022-10-31T01:29:26;12.80;99.90
13684;DHT22;6914;53.552;9.908;2022-10-31T01:31:53;12.80;99.90
13684;DHT22;6914;53.552;9.908;2022-10-31T01:34:20;12.80;99.90
13684;DHT22;6914;53.552;9.908;2022-10-31T01:36:47;12.80;99.90
13684;DHT22;6914;53.552;9.908;2022-10-31T01:39:17;12.90;99.90
13684;DHT22;6914;53.552;9.908;2022-10-31T01:41:46;12.90;99.90
13684;DHT22;6914;53.552;9.908;2022-10-31T01:44:49;12.90;99.90
13684;DHT22;6914;53.552;9.908;2022-10-31T01:47:21;12.90;99.90
13684;DHT22;6914;53.552;9.908;2022-10-31T01:49:56;12.80;99.90
13684;DHT22;6914;53.552;9.908;2022-10-31T01:52:24;12.80;99.90
13684;DHT22;6914;53.552;9.908;2022-10-31T01:54:57;12.70;99.90
13684;DHT22;6914;53.552;9.908;2022-10-31T01:57:25;12.70;99.90
13684;DHT22;6914;53.552;9.908;2022-10-31T01:59:58;12.70;99.90
13684;DHT22;6914;53.552;9.908;2022-10-31T02:02:27;12.70;99.90
13684;DHT22;6914;53.552;9.908;2022-10-31T02:04:54;12.70;99.90
13684;DHT22;6914;53.552;9.908;2022-10-31T02:07:26;12.70;99.90
13684;DHT22;6914;53.552;9.908;2022-10-31T02:09:55;12.70;99.90
13684;DHT22;6914;53.552;9.908;2022-10-31T02:12:24;12.70;99.90
13684;DHT22;6914;53.552;9.908;2022-10-31T02:14:51;12.80;99.90
13684;DHT22;6914;53.552;9.908;2022-10-31T02:17:19;12.80;99.90
13684;DHT22;6914;53.552;9.908;2022-10-31T02:19:51;12.70;99.90
13684;DHT22;6914;53.552;9.908;2022-10-31T02:22:24;12.70;99.90
13684;DHT22;6914;53.552;9.908;2022-10-31T02:25:08;12.60;99.90
13684;DHT22;6914;53.552;9.908;2022-10-31T02:27:57;12.60;99.90
13684;DHT22;6914;53.552;9.908;2022-10-31T02:30:34;12.70;99.90
13684;DHT22;6914;53.552;9.908;2022-10-31T02:33:16;12.70;99.90
13684;DHT22;6914;53.552;9.908;2022-10-31T02:35:53;12.60;99.90
13684;DHT22;6914;53.552;9.908;2022-10-31T02:38:29;12.70;99.90
13684;DHT22;6914;53.552;9.908;2022-10-31T02:41:04;12.70;99.90
13684;DHT22;6914;53.552;9.908;2022-10-31T02:43:37;12.70;99.90
13684;DHT22;6914;53.552;9.908;2022-10-31T02:46:10;12.70;99.90
13684;DHT22;6914;53.552;9.908;2022-10-31T02:48:42;12.60;99.90
13684;DHT22;6914;53.552;9.908;2022-10-31T02:51:11;12.60;99.90
13684;DHT22;6914;53.552;9.908;2022-10-31T02:53:38;12.50;99.90
13684;DHT22;6914;53.552;9.908;2022-10-31T02:56:08;12.60;99.90
13684;DHT22;6914;53.552;9.908;2022-10-31T02:58:40;12.50;99.90
13684;DHT22;6914;53.552;9.908;2022-10-31T03:01:20;12.50;99.90
13684;DHT22;6914;53.552;9.908;2022-10-31T03:04:04;12.50;99.90
13684;DHT22;6914;53.552;9.908;2022-10-31T03:06:36;12.40;99.90
13684;DHT22;6914;53.552;9.908;2022-10-31T03:09:11;12.40;99.90
13684;DHT22;6914;53.552;9.908;2022-10-31T03:11:44;12.40;99.90
13684;DHT22;6914;53.552;9.908;2022-10-31T03:14:15;12.30;99.90
13684;DHT22;6914;53.552;9.908;2022-10-31T03:16:46;12.30;99.90
13684;DHT22;6914;53.552;9.908;2022-10-31T03:19:17;12.30;99.90
13684;DHT22;6914;53.552;9.908;2022-10-31T03:21:48;12.30;99.90
13684;DHT22;6914;53.552;9.908;2022-10-31T03:24:16;12.30;99.90
13684;DHT22;6914;53.552;9.908;2022-10-31T03:26:47;12.30;99.90
13684;DHT22;6914;53.552;9.908;2022-10-31T03:29:18;12.30;99.90
13684;DHT22;6914;53.552;9.908;2022-10-31T03:31:50;12.20;99.90
13684;DHT22;6914;53.552;9.908;2022-10-31T03:34:20;12.30;99.90
13684;DHT22;6914;53.552;9.908;2022-10-31T03:36:49;12.30;99.90
13684;DHT22;6914;53.552;9.908;2022-10-31T03:39:19;12.40;99.90
13684;DHT22;6914;53.552;9.908;2022-10-31T03:41:50;12.40;99.90
13684;DHT22;6914;53.552;9.908;2022-10-31T03:44:21;12.40;99.90
13684;DHT22;6914;53.552;9.908;2022-10-31T03:46:48;12.40;99.90
13684;DHT22;6914;53.552;9.908;2022-10-31T03:49:15;12.30;99.90
13684;DHT22;6914;53.552;9.908;2022-10-31T03:51:49;12.40;99.90
13684;DHT22;6914;53.552;9.908;2022-10-31T03:54:25;12.50;99.90
13684;DHT22;6914;53.552;9.908;2022-10-31T03:56:56;12.40;99.90
13684;DHT22;6914;53.552;9.908;2022-10-31T03:59:26;12.40;99.90
13684;DHT22;6914;53.552;9.908;2022-10-31T04:01:57;12.40;99.90
13684;DHT22;6914;53.552;9.908;2022-10-31T04:04:26;12.40;99.90
13684;DHT22;6914;53.552;9.908;2022-10-31T04:06:57;12.40;99.90
13684;DHT22;6914;53.552;9.908;2022-10-31T04:09:25;12.40;99.90
13684;DHT22;6914;53.552;9.908;2022-10-31T04:11:56;12.40;99.90
13684;DHT22;6914;53.552;9.908;2022-10-31T04:14:25;12.40;99.90
13684;DHT22;6914;53.552;9.908;2022-10-31T04:16:53;12.40;99.90
13684;DHT22;6914;53.552;9.908;2022-10-31T04:19:20;12.40;99.90
13684;DHT22;6914;53.552;9.908;2022-10-31T04:21:47;12.40;99.90
13684;DHT22;6914;53.552;9.908;2022-10-31T04:24:15;12.40;99.90
13684;DHT22;6914;53.552;9.908;2022-10-31T04:26:42;12.40;99.90
13684;DHT22;6914;53.552;9.908;2022-10-31T04:29:09;12.40;99.90
13684;DHT22;6914;53.552;9.908;2022-10-31T04:31:35;12.40;99.90
13684;DHT22;6914;53.552;9.908;2022-10-31T04:34:02;12.50;99.90
13684;DHT22;6914;53.552;9.908;2022-10-31T04:36:29;12.50;99.90
13684;DHT22;6914;53.552;9.908;2022-10-31T04:38:56;12.50;99.90
13684;DHT22;6914;53.552;9.908;2022-10-31T04:41:24;12.50;99.90
13684;DHT22;6914;53.552;9.908;2022-10-31T04:43:51;12.50;99.90
13684;DHT22;6914;53.552;9.908;2022-10-31T04:46:18;12.60;99.90
13684;DHT22;6914;53.552;9.908;2022-10-31T04:48:44;12.60;99.90
13684;DHT22;6914;53.552;9.908;2022-10-31T04:51:11;12.60;99.90
13684;DHT22;6914;53.552;9.908;2022-10-31T04:53:38;12.60;99.90
13684;DHT22;6914;53.552;9.908;2022-10-31T04:56:05;12.60;99.90
13684;DHT22;6914;53.552;9.908;2022-10-31T04:58:33;12.60;99.90
13684;DHT22;6914;53.552;9.908;2022-10-31T05:01:00;12.60;99.90
13684;DHT22;6914;53.552;9.908;2022-10-31T05:03:27;12.50;99.90
13684;DHT22;6914;53.552;9.908;2022-10-31T05:05:53;12.60;99.90
13684;DHT22;6914;53.552;9.908;2022-10-31T05:08:20;12.60;99.90
13684;DHT22;6914;53.552;9.908;2022-10-31T05:10:47;12.70;99.90
13684;DHT22;6914;53.552;9.908;2022-10-31T05:13:14;12.60;99.90
13684;DHT22;6914;53.552;9.908;2022-10-31T05:15:42;12.60;99.90
13684;DHT22;6914;53.552;9.908;2022-10-31T05:18:09;12.60;99.90
13684;DHT22;6914;53.552;9.908;2022-10-31T05:20:36;12.60;99.90
13684;DHT22;6914;53.552;9.908;2022-10-31T05:23:02;12.60;99.90
13684;DHT22;6914;53.552;9.908;2022-10-31T05:25:29;12.60;99.90
13684;DHT22;6914;53.552;9.908;2022-10-31T05:27:57;12.60;99.90
13684;DHT22;6914;53.552;9.908;2022-10-31T05:30:26;12.60;99.90
13684;DHT22;6914;53.552;9.908;2022-10-31T05:32:54;12.60;99.90
13684;DHT22;6914;53.552;9.908;2022-10-31T05:35:23;12.60;99.90
13684;DHT22;6914;53.552;9.908;2022-10-31T05:37:50;12.60;99.90
13684;DHT22;6914;53.552;9.908;2022-10-31T05:40:18;12.70;99.90
13684;DHT22;6914;53.552;9.908;2022-10-31T05:42:45;12.70;99.90
13684;DHT22;6914;53.552;9.908;2022-10-31T05:45:15;12.60;99.90
13684;DHT22;6914;53.552;9.908;2022-10-31T05:47:42;12.70;99.90
13684;DHT22;6914;53.552;9.908;2022-10-31T05:50:10;12.70;99.90
13684;DHT22;6914;53.552;9.908;2022-10-31T05:52:37;12.70;99.90
13684;DHT22;6914;53.552;9.908;2022-10-31T05:55:04;12.70;99.90
13684;DHT22;6914;53.552;9.908;2022-10-31T05:57:32;12.70;99.90
13684;DHT22;6914;53.552;9.908;2022-10-31T05:59:59;12.70;99.90
13684;DHT22;6914;53.552;9.908;2022-10-31T06:02:26;12.70;99.90
13684;DHT22;6914;53.552;9.908;2022-10-31T06:04:57;12.70;99.90
13684;DHT22;6914;53.552;9.908;2022-10-31T06:07:25;12.60;99.90
13684;DHT22;6914;53.552;9.908;2022-10-31T06:09:51;12.60;99.90
13684;DHT22;6914;53.552;9.908;2022-10-31T06:12:18;12.60;99.90
13684;DHT22;6914;53.552;9.908;2022-10-31T06:14:45;12.60;99.90
13684;DHT22;6914;53.552;9.908;2022-10-31T06:17:12;12.60;99.90
13684;DHT22;6914;53.552;9.908;2022-10-31T06:19:39;12.60;99.90
13684;DHT22;6914;53.552;9.908;2022-10-31T06:22:05;12.60;99.90
13684;DHT22;6914;53.552;9.908;2022-10-31T06:24:33;12.60;99.90
13684;DHT22;6914;53.552;9.908;2022-10-31T06:27:00;12.60;99.90
13684;DHT22;6914;53.552;9.908;2022-10-31T06:29:27;12.60;99.90
13684;DHT22;6914;53.552;9.908;2022-10-31T06:31:54;12.60;99.90
13684;DHT22;6914;53.552;9.908;2022-10-31T06:34:20;12.50;99.90
13684;DHT22;6914;53.552;9.908;2022-10-31T06:36:47;12.60;99.90
13684;DHT22;6914;53.552;9.908;2022-10-31T06:39:14;12.60;99.90
13684;DHT22;6914;53.552;9.908;2022-10-31T06:41:42;12.60;99.90
13684;DHT22;6914;53.552;9.908;2022-10-31T06:44:09;12.60;99.90
13684;DHT22;6914;53.552;9.908;2022-10-31T06:46:36;12.60;99.90
13684;DHT22;6914;53.552;9.908;2022-10-31T06:49:02;12.60;99.90
13684;DHT22;6914;53.552;9.908;2022-10-31T06:51:29;12.60;99.90
13684;DHT22;6914;53.552;9.908;2022-10-31T06:53:56;12.60;99.90
13684;DHT22;6914;53.552;9.908;2022-10-31T06:56:23;12.60;99.90
13684;DHT22;6914;53.552;9.908;2022-10-31T06:58:51;12.60;99.90
13684;DHT22;6914;53.552;9.908;2022-10-31T07:01:18;12.50;99.90
13684;DHT22;6914;53.552;9.908;2022-10-31T07:03:45;12.50;99.90
13684;DHT22;6914;53.552;9.908;2022-10-31T07:06:12;12.50;99.90
13684;DHT22;6914;53.552;9.908;2022-10-31T07:08:38;12.50;99.90
13684;DHT22;6914;53.552;9.908;2022-10-31T07:11:05;12.50;99.90
13684;DHT22;6914;53.552;9.908;2022-10-31T07:13:32;12.40;99.90
13684;DHT22;6914;53.552;9.908;2022-10-31T07:16:02;12.40;99.90
13684;DHT22;6914;53.552;9.908;2022-10-31T07:18:29;12.40;99.90
13684;DHT22;6914;53.552;9.908;2022-10-31T07:20:56;12.40;99.90
13684;DHT22;6914;53.552;9.908;2022-10-31T07:23:23;12.40;99.90
13684;DHT22;6914;53.552;9.908;2022-10-31T07:25:54;12.40;99.90
13684;DHT22;6914;53.552;9.908;2022-10-31T07:28:21;12.40;99.90
13684;DHT22;6914;53.552;9.908;2022-10-31T07:30:49;12.40;99.90
13684;DHT22;6914;53.552;9.908;2022-10-31T07:33:17;12.40;99.90
13684;DHT22;6914;53.552;9.908;2022-10-31T07:35:53;12.40;99.90
13684;DHT22;6914;53.552;9.908;2022-10-31T07:38:31;12.40;99.90
13684;DHT22;6914;53.552;9.908;2022-10-31T07:40:58;12.40;99.90
13684;DHT22;6914;53.552;9.908;2022-10-31T07:43:25;12.40;99.90
13684;DHT22;6914;53.552;9.908;2022-10-31T07:45:53;12.40;99.90
13684;DHT22;6914;53.552;9.908;2022-10-31T07:48:21;12.40;99.90
13684;DHT22;6914;53.552;9.908;2022-10-31T07:50:48;12.40;99.90
13684;DHT22;6914;53.552;9.908;2022-10-31T07:53:15;12.40;99.90
13684;DHT22;6914;53.552;9.908;2022-10-31T07:55:42;12.50;99.90
13684;DHT22;6914;53.552;9.908;2022-10-31T07:58:11;12.40;99.90
13684;DHT22;6914;53.552;9.908;2022-10-31T08:00:39;12.40;99.90
13684;DHT22;6914;53.552;9.908;2022-10-31T08:03:08;12.40;99.90
13684;DHT22;6914;53.552;9.908;2022-10-31T08:05:37;12.50;99.90
13684;DHT22;6914;53.552;9.908;2022-10-31T08:08:07;12.50;99.90
13684;DHT22;6914;53.552;9.908;2022-10-31T08:10:35;13.50;99.90
13684;DHT22;6914;53.552;9.908;2022-10-31T08:13:03;12.70;99.90
13684;DHT22;6914;53.552;9.908;2022-10-31T08:15:30;12.90;99.90
13684;DHT22;6914;53.552;9.908;2022-10-31T08:17:59;12.90;99.90
13684;DHT22;6914;53.552;9.908;2022-10-31T08:20:27;13.00;99.90
13684;DHT22;6914;53.552;9.908;2022-10-31T08:22:57;12.90;99.90
13684;DHT22;6914;53.552;9.908;2022-10-31T08:25:36;13.00;99.90
13684;DHT22;6914;53.552;9.908;2022-10-31T08:28:04;13.10;99.90
13684;DHT22;6914;53.552;9.908;2022-10-31T08:30:33;13.10;99.90
13684;DHT22;6914;53.552;9.908;2022-10-31T08:33:01;13.30;99.90
13684;DHT22;6914;53.552;9.908;2022-10-31T08:35:28;13.40;99.90
13684;DHT22;6914;53.552;9.908;2022-10-31T08:37:57;13.50;99.90
13684;DHT22;6914;53.552;9.908;2022-10-31T08:40:24;13.50;99.90
13684;DHT22;6914;53.552;9.908;2022-10-31T08:43:02;13.50;99.90
13684;DHT22;6914;53.552;9.908;2022-10-31T08:45:30;13.30;99.90
13684;DHT22;6914;53.552;9.908;2022-10-31T08:47:58;13.10;99.90
13684;DHT22;6914;53.552;9.908;2022-10-31T08:50:25;13.20;99.90
13684;DHT22;6914;53.552;9.908;2022-10-31T08:52:52;13.10;99.90
13684;DHT22;6914;53.552;9.908;2022-10-31T08:55:20;12.90;99.90
13684;DHT22;6914;53.552;9.908;2022-10-31T08:57:47;12.80;99.90
13684;DHT22;6914;53.552;9.908;2022-10-31T09:00:14;12.90;99.90
13684;DHT22;6914;53.552;9.908;2022-10-31T09:02:41;13.00;99.90
13684;DHT22;6914;53.552;9.908;2022-10-31T09:05:08;13.00;99.90
13684;DHT22;6914;53.552;9.908;2022-10-31T09:07:35;13.00;99.90
13684;DHT22;6914;53.552;9.908;2022-10-31T09:10:02;13.00;99.90
13684;DHT22;6914;53.552;9.908;2022-10-31T09:12:30;13.10;99.90
13684;DHT22;6914;53.552;9.908;2022-10-31T09:14:57;13.10;99.90
13684;DHT22;6914;53.552;9.908;2022-10-31T09:17:26;13.10;99.90
13684;DHT22;6914;53.552;9.908;2022-10-31T09:19:54;13.10;99.90
13684;DHT22;6914;53.552;9.908;2022-10-31T09:22:21;12.90;99.90
13684;DHT22;6914;53.552;9.908;2022-10-31T09:24:48;13.00;99.90
13684;DHT22;6914;53.552;9.908;2022-10-31T09:27:14;13.00;99.90
13684;DHT22;6914;53.552;9.908;2022-10-31T09:29:42;13.20;99.90
13684;DHT22;6914;53.552;9.908;2022-10-31T09:32:09;13.20;99.90
13684;DHT22;6914;53.552;9.908;2022-10-31T09:34:36;13.20;99.90
13684;DHT22;6914;53.552;9.908;2022-10-31T09:37:03;13.50;99.90
13684;DHT22;6914;53.552;9.908;2022-10-31T09:39:29;13.40;99.90
13684;DHT22;6914;53.552;9.908;2022-10-31T09:42:05;13.40;99.90
13684;DHT22;6914;53.552;9.908;2022-10-31T09:44:48;13.50;99.90
13684;DHT22;6914;53.552;9.908;2022-10-31T09:47:24;13.50;99.90
13684;DHT22;6914;53.552;9.908;2022-10-31T09:50:02;13.40;99.90
13684;DHT22;6914;53.552;9.908;2022-10-31T09:52:34;13.40;99.90
13684;DHT22;6914;53.552;9.908;2022-10-31T09:55:08;13.30;99.90
13684;DHT22;6914;53.552;9.908;2022-10-31T09:57:37;13.20;99.90
13684;DHT22;6914;53.552;9.908;2022-10-31T10:00:07;13.10;99.90
13684;DHT22;6914;53.552;9.908;2022-10-31T10:02:41;13.10;99.90
13684;DHT22;6914;53.552;9.908;2022-10-31T10:05:11;13.00;99.90
13684;DHT22;6914;53.552;9.908;2022-10-31T10:07:44;13.10;99.90
13684;DHT22;6914;53.552;9.908;2022-10-31T10:10:15;12.80;99.90
13684;DHT22;6914;53.552;9.908;2022-10-31T10:16:00;13.40;99.90
13684;DHT22;6914;53.552;9.908;2022-10-31T10:18:38;13.50;99.90
13684;DHT22;6914;53.552;9.908;2022-10-31T10:21:25;13.60;99.90
13684;DHT22;6914;53.552;9.908;2022-10-31T10:24:04;13.70;99.90
13684;DHT22;6914;53.552;9.908;2022-10-31T10:26:37;13.70;99.90
13684;DHT22;6914;53.552;9.908;2022-10-31T10:29:17;13.70;99.90
13684;DHT22;6914;53.552;9.908;2022-10-31T10:31:49;13.60;99.90
13684;DHT22;6914;53.552;9.908;2022-10-31T10:34:20;13.80;99.90
13684;DHT22;6914;53.552;9.908;2022-10-31T10:36:53;13.80;99.90
13684;DHT22;6914;53.552;9.908;2022-10-31T10:39:30;13.60;99.90
13684;DHT22;6914;53.552;9.908;2022-10-31T10:41:59;13.70;99.90
13684;DHT22;6914;53.552;9.908;2022-10-31T10:44:47;13.60;99.90
13684;DHT22;6914;53.552;9.908;2022-10-31T10:47:38;13.80;99.90
13684;DHT22;6914;53.552;9.908;2022-10-31T10:50:11;13.90;99.90
13684;DHT22;6914;53.552;9.908;2022-10-31T10:52:47;13.90;99.90
13684;DHT22;6914;53.552;9.908;2022-10-31T10:55:23;13.80;99.90
13684;DHT22;6914;53.552;9.908;2022-10-31T10:57:56;13.80;99.90
13684;DHT22;6914;53.552;9.908;2022-10-31T11:00:27;13.80;99.90
13684;DHT22;6914;53.552;9.908;2022-10-31T11:02:57;13.90;99.90
13684;DHT22;6914;53.552;9.908;2022-10-31T11:05:29;13.70;99.90
13684;DHT22;6914;53.552;9.908;2022-10-31T11:07:57;13.70;99.90
13684;DHT22;6914;53.552;9.908;2022-10-31T11:10:23;13.70;99.90
13684;DHT22;6914;53.552;9.908;2022-10-31T11:13:01;13.70;99.90
13684;DHT22;6914;53.552;9.908;2022-10-31T11:15:31;13.90;99.90
13684;DHT22;6914;53.552;9.908;2022-10-31T11:18:00;13.80;99.90
13684;DHT22;6914;53.552;9.908;2022-10-31T11:20:31;13.80;99.90
13684;DHT22;6914;53.552;9.908;2022-10-31T11:23:17;13.70;99.90
13684;DHT22;6914;53.552;9.908;2022-10-31T11:25:53;13.80;99.90
13684;DHT22;6914;53.552;9.908;2022-10-31T11:28:20;13.90;99.90
13684;DHT22;6914;53.552;9.908;2022-10-31T11:30:50;13.90;99.90
13684;DHT22;6914;53.552;9.908;2022-10-31T11:33:28;14.00;99.90
13684;DHT22;6914;53.552;9.908;2022-10-31T11:35:56;13.90;99.90
13684;DHT22;6914;53.552;9.908;2022-10-31T11:38:26;13.90;99.90
13684;DHT22;6914;53.552;9.908;2022-10-31T11:40:58;13.90;99.90
13684;DHT22;6914;53.552;9.908;2022-10-31T11:43:26;14.00;99.90
13684;DHT22;6914;53.552;9.908;2022-10-31T11:45:54;14.10;99.90
13684;DHT22;6914;53.552;9.908;2022-10-31T11:48:23;13.90;99.90
13684;DHT22;6914;53.552;9.908;2022-10-31T11:50:52;14.70;99.90
13684;DHT22;6914;53.552;9.908;2022-10-31T11:53:25;14.00;99.90
13684;DHT22;6914;53.552;9.908;2022-10-31T11:56:05;14.10;99.90
13684;DHT22;6914;53.552;9.908;2022-10-31T11:58:32;14.00;99.90
13684;DHT22;6914;53.552;9.908;2022-10-31T12:00:59;14.40;99.90
13684;DHT22;6914;53.552;9.908;2022-10-31T12:03:37;14.00;99.90
13684;DHT22;6914;53.552;9.908;2022-10-31T12:06:08;14.00;99.90
13684;DHT22;6914;53.552;9.908;2022-10-31T12:08:39;14.10;99.90
13684;DHT22;6914;53.552;9.908;2022-10-31T12:11:11;14.10;99.90
13684;DHT22;6914;53.552;9.908;2022-10-31T12:13:51;14.20;99.90
13684;DHT22;6914;53.552;9.908;2022-10-31T12:16:26;14.10;99.90
13684;DHT22;6914;53.552;9.908;2022-10-31T12:19:04;13.90;99.90
13684;DHT22;6914;53.552;9.908;2022-10-31T12:21:48;14.20;99.90
13684;DHT22;6914;53.552;9.908;2022-10-31T12:24:41;14.10;99.90
13684;DHT22;6914;53.552;9.908;2022-10-31T12:27:17;14.00;99.90
13684;DHT22;6914;53.552;9.908;2022-10-31T12:30:01;14.10;99.90
13684;DHT22;6914;53.552;9.908;2022-10-31T12:32:35;14.20;99.90
13684;DHT22;6914;53.552;9.908;2022-10-31T12:35:29;14.20;99.90
13684;DHT22;6914;53.552;9.908;2022-10-31T12:38:11;14.30;99.90
13684;DHT22;6914;53.552;9.908;2022-10-31T12:41:04;14.40;99.90
13684;DHT22;6914;53.552;9.908;2022-10-31T12:43:46;14.20;99.90
13684;DHT22;6914;53.552;9.908;2022-10-31T12:46:20;14.30;99.90
13684;DHT22;6914;53.552;9.908;2022-10-31T12:49:13;14.40;99.90
13684;DHT22;6914;53.552;9.908;2022-10-31T12:51:50;14.30;99.90
13684;DHT22;6914;53.552;9.908;2022-10-31T12:54:34;14.50;99.90
13684;DHT22;6914;53.552;9.908;2022-10-31T12:57:09;15.20;99.90
13684;DHT22;6914;53.552;9.908;2022-10-31T12:59:42;14.40;99.90
13684;DHT22;6914;53.552;9.908;2022-10-31T13:02:16;14.60;99.90
13684;DHT22;6914;53.552;9.908;2022-10-31T13:04:48;15.00;99.90
13684;DHT22;6914;53.552;9.908;2022-10-31T13:07:23;15.10;99.90
13684;DHT22;6914;53.552;9.908;2022-10-31T13:09:56;15.30;99.90
13684;DHT22;6914;53.552;9.908;2022-10-31T13:12:27;15.40;99.90
13684;DHT22;6914;53.552;9.908;2022-10-31T13:14:57;15.50;99.90
13684;DHT22;6914;53.552;9.908;2022-10-31T13:17:28;15.50;99.90
13684;DHT22;6914;53.552;9.908;2022-10-31T13:20:08;15.40;99.90
13684;DHT22;6914;53.552;9.908;2022-10-31T13:22:43;15.20;99.90
13684;DHT22;6914;53.552;9.908;2022-10-31T13:25:15;15.10;99.90
13684;DHT22;6914;53.552;9.908;2022-10-31T13:27:47;15.00;99.90
13684;DHT22;6914;53.552;9.908;2022-10-31T13:30:17;14.90;99.90
13684;DHT22;6914;53.552;9.908;2022-10-31T13:32:49;14.80;99.90
13684;DHT22;6914;53.552;9.908;2022-10-31T13:35:21;14.90;99.90
13684;DHT22;6914;53.552;9.908;2022-10-31T13:37:58;15.10;99.90
13684;DHT22;6914;53.552;9.908;2022-10-31T13:40:36;15.00;99.90
13684;DHT22;6914;53.552;9.908;2022-10-31T13:43:12;15.10;99.90
13684;DHT22;6914;53.552;9.908;2022-10-31T13:45:51;15.20;99.90
13684;DHT22;6914;53.552;9.908;2022-10-31T13:48:33;15.20;99.90
13684;DHT22;6914;53.552;9.908;2022-10-31T13:51:03;15.20;99.90
13684;DHT22;6914;53.552;9.908;2022-10-31T13:53:43;15.30;99.90
13684;DHT22;6914;53.552;9.908;2022-10-31T13:56:19;15.50;99.90
13684;DHT22;6914;53.552;9.908;2022-10-31T13:59:16;15.70;99.90
13684;DHT22;6914;53.552;9.908;2022-10-31T14:01:47;15.60;99.90
13684;DHT22;6914;53.552;9.908;2022-10-31T14:04:17;15.50;99.90
13684;DHT22;6914;53.552;9.908;2022-10-31T14:06:56;15.40;99.90
13684;DHT22;6914;53.552;9.908;2022-10-31T14:09:28;15.50;99.90
13684;DHT22;6914;53.552;9.908;2022-10-31T14:11:56;15.50;99.90
13684;DHT22;6914;53.552;9.908;2022-10-31T14:14:30;15.40;99.90
13684;DHT22;6914;53.552;9.908;2022-10-31T14:16:59;15.20;99.90
13684;DHT22;6914;53.552;9.908;2022-10-31T14:19:26;15.30;99.90
13684;DHT22;6914;53.552;9.908;2022-10-31T14:21:53;15.30;99.90
13684;DHT22;6914;53.552;9.908;2022-10-31T14:24:36;15.30;99.90
13684;DHT22;6914;53.552;9.908;2022-10-31T14:29:47;15.10;99.90
13684;DHT22;6914;53.552;9.908;2022-10-31T14:32:21;14.90;99.90
13684;DHT22;6914;53.552;9.908;2022-10-31T14:34:53;14.80;99.90
13684;DHT22;6914;53.552;9.908;2022-10-31T14:40:32;14.80;99.90
13684;DHT22;6914;53.552;9.908;2022-10-31T14:46:01;14.70;99.90
13684;DHT22;6914;53.552;9.908;2022-10-31T14:48:47;14.70;99.90
13684;DHT22;6914;53.552;9.908;2022-10-31T14:51:20;14.70;99.90
13684;DHT22;6914;53.552;9.908;2022-10-31T14:53:54;14.50;99.90
13684;DHT22;6914;53.552;9.908;2022-10-31T14:56:25;14.40;99.90
13684;DHT22;6914;53.552;9.908;2022-10-31T14:58:53;14.30;99.90
13684;DHT22;6914;53.552;9.908;2022-10-31T15:01:24;14.20;99.90
13684;DHT22;6914;53.552;9.908;2022-10-31T15:03:52;14.10;99.90
13684;DHT22;6914;53.552;9.908;2022-10-31T15:06:21;14.10;99.90
13684;DHT22;6914;53.552;9.908;2022-10-31T15:08:53;14.10;99.90
13684;DHT22;6914;53.552;9.908;2022-10-31T15:11:24;14.00;99.90
13684;DHT22;6914;53.552;9.908;2022-10-31T15:13:53;14.10;99.90
13684;DHT22;6914;53.552;9.908;2022-10-31T15:16:22;14.00;99.90
13684;DHT22;6914;53.552;9.908;2022-10-31T15:18:53;14.00;99.90
13684;DHT22;6914;53.552;9.908;2022-10-31T15:21:22;13.90;99.90
13684;DHT22;6914;53.552;9.908;2022-10-31T15:23:51;13.80;99.90
13684;DHT22;6914;53.552;9.908;2022-10-31T15:26:21;13.80;99.90
13684;DHT22;6914;53.552;9.908;2022-10-31T15:28:59;13.80;99.90
13684;DHT22;6914;53.552;9.908;2022-10-31T15:31:27;13.80;99.90
13684;DHT22;6914;53.552;9.908;2022-10-31T15:33:58;13.70;99.90
13684;DHT22;6914;53.552;9.908;2022-10-31T15:36:26;13.70;99.90
13684;DHT22;6914;53.552;9.908;2022-10-31T15:38:55;13.80;99.90
13684;DHT22;6914;53.552;9.908;2022-10-31T15:41:28;13.70;99.90
13684;DHT22;6914;53.552;9.908;2022-10-31T15:44:02;13.70;99.90
13684;DHT22;6914;53.552;9.908;2022-10-31T15:46:30;13.60;99.90
13684;DHT22;6914;53.552;9.908;2022-10-31T15:48:57;13.50;99.90
13684;DHT22;6914;53.552;9.908;2022-10-31T15:51:29;13.60;99.90
13684;DHT22;6914;53.552;9.908;2022-10-31T15:54:04;14.20;99.90
13684;DHT22;6914;53.552;9.908;2022-10-31T15:56:43;11.30;99.90
13684;DHT22;6914;53.552;9.908;2022-10-31T15:59:17;13.40;99.90
13684;DHT22;6914;53.552;9.908;2022-10-31T16:01:58;13.00;99.90
13684;DHT22;6914;53.552;9.908;2022-10-31T16:04:25;13.30;99.90
13684;DHT22;6914;53.552;9.908;2022-10-31T16:07:00;13.30;99.90
13684;DHT22;6914;53.552;9.908;2022-10-31T16:09:27;13.30;99.90
13684;DHT22;6914;53.552;9.908;2022-10-31T16:11:56;13.20;99.90
13684;DHT22;6914;53.552;9.908;2022-10-31T16:14:29;13.20;99.90
13684;DHT22;6914;53.552;9.908;2022-10-31T16:16:58;12.70;99.90
13684;DHT22;6914;53.552;9.908;2022-10-31T16:19:29;13.20;99.90